Latest Weather Observations for Sheoaks

IDV60801

Issued at 7:12 am EDT Monday 6 February 2023 (issued every 10 minutes, with the page automatically refreshed every 10 minutes)

About weather observations | Map of weather stations | Latest weather observations for VIC | Other Formats
Station Details ID: 087168 Name: SHE OAKS Lat: -37.91 Lon: 144.13 Height: 236.7 m
Data from the previous 72 hours. | See also: Recent months at Sheoaks
Date/Time
EDT
Temp
°C
App
Temp
°C
Dew
Point
°C
Rel
Hum
%
Delta-T
°C
Wind Press
QNH
hPa
Press
MSL
hPa
Rain since
9am
mm
Dir  Spd
km/h
Gust
km/h
Spd
kts
Gust
kts
06/07:00am 13.0 12.5 12.2 95 0.4 WSW 6 7 3 4 1020.0 1019.4 0.0
06/06:30am 13.0 12.9 12.1 94 0.5 WSW 4 7 2 4 1019.5 1018.8 0.0
06/06:00am 13.1 12.6 12.0 93 0.6 W 6 9 3 5 1019.4 1018.7 0.0
06/05:30am 13.0 12.8 11.7 92 0.7 W 4 6 2 3 1019.1 1018.4 0.0
06/05:00am 13.0 12.4 11.7 92 0.7 W 6 7 3 4 1018.7 1018.0 0.0
06/04:30am 13.1 12.4 12.0 93 0.6 WSW 7 11 4 6 1018.7 1018.0 0.0
06/04:00am 13.1 12.6 12.5 96 0.3 WSW 7 13 4 7 1018.6 1017.9 0.0
06/03:30am 12.1 12.2 11.6 97 0.3 NNW 2 4 1 2 1018.4 1017.7 0.0
06/03:00am 12.0 11.7 11.5 97 0.3 NNW 4 6 2 3 1018.5 1017.8 0.0
06/02:30am 11.9 11.1 11.1 95 0.4 NNW 6 6 3 3 1018.6 1017.9 0.0
06/02:00am 11.8 11.3 10.7 93 0.6 NNW 4 6 2 3 1018.5 1017.8 0.0
06/01:30am 12.8 13.1 11.0 89 1.0 CALM 0 0 0 0 1018.6 1017.9 0.0
06/01:00am 13.5 13.5 11.2 86 1.2 S 2 4 1 2 1018.9 1018.2 0.0
06/12:30am 14.4 13.9 11.9 85 1.4 SSW 6 11 3 6 1019.0 1018.3 0.0
06/12:00am 14.5 14.7 11.8 84 1.5 E 2 2 1 1 1018.9 1018.2 0.0
 
Date/Time
EDT
Temp
°C
App
Temp
°C
Dew
Point
°C
Rel
Hum
%
Delta-T
°C
Wind Press
QNH
hPa
Press
MSL
hPa
Rain since
9am
mm
Dir  Spd
km/h
Gust
km/h
Spd
kts
Gust
kts
05/11:30pm 14.5 14.7 11.8 84 1.5 E 2 2 1 1 1018.9 1018.2 0.0
05/11:00pm 14.6 14.4 11.7 83 1.6 ESE 4 4 2 2 1019.1 1018.4 0.0
05/10:30pm 14.7 14.5 11.7 82 1.6 SE 4 4 2 2 1019.2 1018.5 0.0
05/10:00pm 14.8 14.5 11.6 81 1.7 E 4 6 2 3 1019.1 1018.4 0.0
05/09:30pm 15.1 14.9 11.7 80 1.9 E 4 7 2 4 1018.9 1018.2 0.0
05/09:00pm 15.3 14.6 11.5 78 2.1 E 6 7 3 4 1018.7 1018.0 0.0
05/08:30pm 15.7 15.1 11.7 77 2.2 ESE 6 7 3 4 1018.6 1017.9 0.0
05/08:00pm 16.2 15.6 11.8 75 2.4 E 6 9 3 5 1018.2 1017.5 0.0
05/07:30pm 16.5 15.7 11.6 73 2.7 E 7 9 4 5 1018.1 1017.4 0.0
05/07:00pm 16.9 15.6 11.2 69 3.1 SE 9 13 5 7 1018.1 1017.4 0.0
05/06:30pm 17.6 16.1 10.7 64 3.7 SSW 9 15 5 8 1017.9 1017.2 0.0
05/06:00pm 18.1 16.5 11.4 65 3.7 SSW 11 20 6 11 1017.8 1017.1 0.0
05/05:30pm 17.8 15.7 11.1 65 3.7 SSW 13 20 7 11 1017.6 1016.9 0.0
05/05:00pm 18.3 16.8 10.7 61 4.1 SW 9 17 5 9 1017.7 1017.0 0.0
05/04:30pm 17.9 15.2 10.3 61 4.1 SW 15 24 8 13 1017.8 1017.1 0.0
05/04:00pm 18.3 16.4 10.4 60 4.3 SW 11 17 6 9 1017.8 1017.1 0.0
05/03:30pm 17.6 15.9 9.8 60 4.2 WSW 9 15 5 8 1018.0 1017.3 0.0
05/03:00pm 17.6 15.5 9.8 60 4.2 WSW 11 17 6 9 1018.1 1017.4 0.0
05/02:30pm 17.8 16.1 9.9 60 4.2 W 9 15 5 8 1018.1 1017.4 0.0
05/02:00pm 17.7 16.0 9.8 60 4.2 WNW 9 15 5 8 1018.2 1017.5 0.0
05/01:30pm 16.5 14.0 9.7 64 3.6 W 13 19 7 10 1018.4 1017.7 0.0
05/01:00pm 15.6 13.2 9.9 69 3.0 WSW 13 20 7 11 1018.6 1017.9 0.0
05/12:30pm 15.8 13.6 9.5 66 3.3 WSW 11 19 6 10 1018.4 1017.7 0.0
05/12:00pm 15.6 14.4 10.2 70 2.9 WNW 7 13 4 7 1018.4 1017.7 0.0
05/11:30am 15.1 13.1 10.1 72 2.6 WSW 11 20 6 11 1018.4 1017.7 0.0
05/11:00am 15.3 12.7 9.2 67 3.2 WSW 13 20 7 11 1018.3 1017.6 0.0
05/10:30am 15.4 12.7 8.9 65 3.4 W 13 19 7 10 1018.1 1017.4 0.0
05/10:00am 15.2 13.4 9.6 69 2.9 WSW 9 15 5 8 1018.1 1017.4 0.0
05/09:30am 13.6 11.1 11.0 84 1.4 W 15 20 8 11 1017.9 1017.2 0.0
05/09:00am 14.5 12.6 10.5 77 2.1 W 11 19 6 10 1017.7 1017.0 0.2
05/08:30am 14.3 13.0 11.3 82 1.6 WSW 9 13 5 7 1017.3 1016.6 0.2
05/08:00am 13.5 11.3 10.9 84 1.4 W 13 19 7 10 1016.8 1016.1 0.2
05/07:30am 13.2 11.4 10.7 85 1.3 W 11 15 6 8 1016.5 1015.8 0.2
05/07:00am 12.8 11.3 10.7 87 1.1 W 9 15 5 8 1016.2 1015.4 0.2
05/06:30am 12.7 11.3 10.9 89 1.0 W 9 17 5 9 1015.7 1015.0 0.2
05/06:00am 12.7 10.9 10.9 89 1.0 WNW 11 13 6 7 1015.4 1014.7 0.2
05/05:30am 12.4 10.9 10.5 88 1.0 WNW 9 15 5 8 1015.0 1014.3 0.2
05/05:00am 12.5 10.9 10.2 86 1.2 WNW 9 13 5 7 1014.6 1013.9 0.2
05/04:30am 12.7 11.6 10.6 87 1.1 WNW 7 11 4 6 1014.4 1013.7 0.2
05/04:00am 12.1 11.1 10.3 89 0.9 NW 6 13 3 7 1014.3 1013.6 0.2
05/03:30am 11.9 10.9 10.3 90 0.8 NW 6 9 3 5 1014.3 1013.6 0.2
05/03:00am 11.8 10.6 10.4 91 0.7 NW 7 9 4 5 1014.2 1013.5 0.2
05/02:30am 11.5 10.2 9.9 90 0.8 NW 7 9 4 5 1014.2 1013.5 0.2
05/02:00am 11.7 10.0 9.9 89 0.9 WNW 9 13 5 7 1014.3 1013.6 0.2
05/01:30am 11.6 10.2 9.7 88 1.0 WNW 7 11 4 6 1014.4 1013.7 0.2
05/01:00am 11.9 10.1 9.5 85 1.2 W 9 13 5 7 1014.5 1013.8 0.2
05/12:30am 11.9 10.4 9.1 83 1.4 W 7 15 4 8 1014.5 1013.8 0.2
05/12:00am 12.2 10.3 9.0 81 1.6 WNW 9 15 5 8 1014.4 1013.7 0.2
 
Date/Time
EDT
Temp
°C
App
Temp
°C
Dew
Point
°C
Rel
Hum
%
Delta-T
°C
Wind Press
QNH
hPa
Press
MSL
hPa
Rain since
9am
mm
Dir  Spd
km/h
Gust
km/h
Spd
kts
Gust
kts
04/11:30pm 12.8 10.6 9.3 79 1.8 W 11 15 6 8 1014.4 1013.7 0.2
04/11:00pm 13.5 11.7 9.6 77 2.0 W 9 15 5 8 1014.5 1013.8 0.2
04/10:30pm 13.6 12.1 9.1 74 2.3 WSW 7 13 4 7 1014.6 1013.9 0.2
04/10:00pm 13.9 11.6 8.9 72 2.6 WSW 11 19 6 10 1014.2 1013.5 0.2
04/09:30pm 13.6 12.1 9.1 74 2.3 WSW 7 17 4 9 1014.0 1013.3 0.2
04/09:00pm 14.1 11.0 8.9 71 2.7 SW 15 24 8 13 1013.3 1012.6 0.2
04/08:30pm 14.9 11.1 9.7 71 2.7 SW 20 33 11 18 1012.8 1012.1 0.2
04/08:00pm 15.6 11.8 9.1 65 3.4 SW 19 32 10 17 1012.4 1011.6 0.2
04/07:30pm 16.0 13.1 9.7 66 3.3 SW 15 24 8 13 1012.0 1011.2 0.2
04/07:00pm 16.5 12.6 9.4 63 3.7 WSW 20 35 11 19 1011.4 1010.7 0.2
04/06:30pm 17.7 13.6 8.8 56 4.7 WSW 20 35 11 19 1010.9 1010.2 0.2
04/06:00pm 18.3 13.9 9.1 55 4.9 WSW 22 33 12 18 1010.5 1009.8 0.2
04/05:30pm 17.8 13.7 8.6 55 4.8 WSW 20 33 11 18 1010.3 1009.6 0.2
04/05:00pm 18.6 14.6 9.1 54 5.0 WSW 20 37 11 20 1010.1 1009.4 0.2
04/04:30pm 18.3 12.8 7.7 50 5.5 WSW 26 46 14 25 1009.8 1009.1 0.2
04/04:00pm 17.7 12.7 8.0 53 5.0 WSW 24 37 13 20 1009.6 1008.9 0.2
04/03:30pm 18.2 12.8 8.2 52 5.2 WSW 26 46 14 25 1009.4 1008.7 0.2
04/03:00pm 17.8 12.9 8.4 54 4.9 WSW 24 41 13 22 1009.3 1008.6 0.2
04/02:30pm 17.5 13.1 8.9 57 4.5 WSW 22 39 12 21 1009.2 1008.5 0.2
04/02:00pm 17.9 12.5 8.2 53 5.0 WSW 26 37 14 20 1008.7 1007.9 0.2
04/01:30pm 17.4 13.0 9.1 58 4.4 WSW 22 37 12 20 1008.5 1007.7 0.2
04/01:00pm 17.8 13.0 8.9 56 4.7 WSW 24 39 13 21 1008.2 1007.4 0.2
04/12:30pm 17.4 12.8 8.3 55 4.7 WSW 22 41 12 22 1007.8 1007.0 0.2
04/12:00pm 17.3 12.3 8.2 55 4.7 WSW 24 37 13 20 1007.8 1007.0 0.2
04/11:30am 15.9 10.8 9.3 65 3.5 WSW 26 41 14 22 1007.6 1006.8 0.2
04/11:00am 15.3 11.5 11.3 77 2.2 WSW 22 39 12 21 1007.0 1006.3 0.2
04/10:30am 14.5 11.4 12.2 86 1.3 WSW 20 33 11 18 1006.8 1006.1 0.2
04/10:00am 14.4 11.0 12.4 88 1.1 W 22 35 12 19 1006.4 1005.7 0.0
04/09:30am 14.0 10.6 12.4 90 0.9 W 22 39 12 21 1005.8 1005.1 0.0
04/09:00am 13.5 10.5 12.7 95 0.4 W 20 30 11 16 1005.1 1004.3 13.8
04/08:30am 13.0 10.0 12.7 98 0.2 W 20 41 11 22 1004.7 1003.9 13.8
04/08:00am 12.4 9.5 12.2 99 0.1 W 19 28 10 15 1004.2 1003.4 13.8
04/07:30am 12.1 9.1 11.9 99 0.1 W 19 30 10 16 1003.4 1002.6 13.8
04/07:00am 11.9 7.8 11.6 98 0.2 W 24 37 13 20 1002.8 1002.0 13.8
04/06:30am 11.6 7.4 11.0 96 0.3 W 24 39 13 21 1002.1 1001.4 13.6
04/06:00am 11.4 7.4 10.6 95 0.4 WNW 22 33 12 18 1001.8 1001.1 11.6
04/05:30am 11.1 7.4 10.2 94 0.5 WNW 20 30 11 16 1001.8 1001.1 10.0
04/05:00am 10.8 7.5 9.7 93 0.6 WNW 17 26 9 14 1001.4 1000.6 7.4
04/04:30am 10.9 7.6 9.5 91 0.7 WNW 17 32 9 17 1001.4 1000.6 5.4
04/04:00am 11.3 7.3 9.0 86 1.2 WNW 20 32 11 17 1001.5 1000.7 4.2
04/03:30am 11.3 7.4 9.4 88 1.0 WNW 20 33 11 18 1001.3 1000.5 4.2
04/03:00am 10.9 7.9 9.3 90 0.8 NW 15 22 8 12 1001.5 1000.7 4.2
04/02:30am 10.7 6.8 9.3 91 0.7 WNW 20 32 11 17 1001.8 1001.1 4.2
04/02:00am 10.8 6.8 8.9 88 1.0 WNW 20 32 11 17 1002.1 1001.4 4.2
04/01:30am 10.9 6.9 9.0 88 1.0 W 20 32 11 17 1002.0 1001.3 4.2
04/01:00am 10.8 7.3 8.7 87 1.1 WNW 17 26 9 14 1002.1 1001.4 4.2
04/12:30am 10.8 6.8 8.2 84 1.3 WNW 19 30 10 16 1002.1 1001.4 4.2
04/12:00am 10.9 7.2 8.1 83 1.4 WNW 17 30 9 16 1002.0 1001.3 4.2
 
Date/Time
EDT
Temp
°C
App
Temp
°C
Dew
Point
°C
Rel
Hum
%
Delta-T
°C
Wind Press
QNH
hPa
Press
MSL
hPa
Rain since
9am
mm
Dir  Spd
km/h
Gust
km/h
Spd
kts
Gust
kts
03/11:30pm 11.0 7.7 7.9 81 1.5 WNW 15 20 8 11 1001.7 1001.0 4.2
03/11:00pm 10.7 7.4 8.1 84 1.3 WNW 15 24 8 13 1001.4 1000.6 4.2
03/10:30pm 10.0 7.4 7.6 85 1.2 NW 11 17 6 9 1001.1 1000.3 4.0
03/10:00pm 9.9 7.7 7.7 86 1.1 NW 9 13 5 7 1000.9 1000.1 4.0
03/09:30pm 10.3 8.1 7.7 84 1.3 NW 9 13 5 7 1000.5 999.7 4.0
03/09:00pm 10.8 7.9 8.0 83 1.4 WNW 13 22 7 12 1000.3 999.5 4.0
03/08:30pm 10.6 8.4 7.8 83 1.4 WNW 9 15 5 8 999.8 999.0 4.0
03/08:00pm 10.7 7.7 7.6 81 1.5 W 13 19 7 10 999.2 998.4 4.0
03/07:30pm 10.6 8.1 8.0 84 1.3 WNW 11 20 6 11 998.3 997.5 3.8
03/07:00pm 11.2 8.8 8.6 84 1.3 NW 11 15 6 8 997.8 997.0 3.4
03/06:30pm 10.4 6.0 6.4 76 1.9 W 19 28 10 15 997.5 996.7 3.2
03/06:00pm 12.4 8.0 7.3 71 2.5 WNW 20 30 11 16 996.3 995.5 2.4
03/05:30pm 12.2 9.5 9.0 81 1.6 NW 13 22 7 12 996.4 995.6 2.4
03/05:00pm 10.5 6.2 7.2 80 1.6 WNW 19 35 10 19 996.3 995.5 2.4
03/04:30pm 13.1 8.7 7.3 68 2.9 WNW 20 33 11 18 995.6 994.8 2.4
03/04:00pm 10.9 7.5 7.8 81 1.5 WNW 15 24 8 13 995.4 994.6 2.4
03/03:30pm 8.7 3.6 6.0 83 1.2 W 22 41 12 22 995.5 994.7 2.2
03/03:17pm 8.9 1.7 4.9 76 1.8 W 32 48 17 26 995.5 994.7 1.2
03/03:11pm 14.0 7.4 4.3 52 4.5 WNW 28 46 15 25 994.9 994.1 0.2
03/03:00pm 15.3 9.4 5.8 53 4.7 W 26 37 14 20 994.6 993.8 0.2
03/02:30pm 13.9 7.9 5.5 57 4.0 W 26 37 14 20 994.4 993.6 0.2
03/02:07pm 11.2 5.1 6.5 73 2.2 W 28 46 15 25 994.1 993.2 0.0
03/02:00pm 10.6 4.3 5.8 72 2.3 W 28 44 15 24 994.1 993.2 0.0
03/01:45pm 12.5 6.0 4.7 59 3.6 W 28 46 15 25 994.0 993.1 0.0
03/01:30pm 14.5 7.0 3.6 48 5.0 W 32 48 17 26 993.5 992.7 0.0
03/01:00pm 14.2 7.3 4.5 52 4.6 WNW 30 43 16 23 993.4 992.6 0.0
03/12:30pm 13.1 7.3 4.5 56 4.0 WNW 24 43 13 23 993.2 992.4 0.0
03/12:00pm 11.9 7.5 7.2 73 2.3 WNW 20 33 11 18 993.2 992.4 0.0
03/11:38am 11.4 5.0 5.1 65 2.9 W 28 52 15 28 993.0 992.2 0.0
03/11:30am 12.2 5.8 5.4 63 3.2 W 28 37 15 20 993.0 992.2 0.0
03/11:18am 12.7 6.1 4.4 57 3.8 WNW 28 46 15 25 992.7 991.9 0.0
03/11:00am 13.0 7.4 5.2 59 3.7 WNW 24 46 13 25 992.8 992.0 0.0
03/10:33am 12.7 6.3 5.1 60 3.6 WNW 28 46 15 25 992.7 991.9 0.0
03/10:30am 13.0 7.1 5.9 62 3.4 NW 26 46 14 25 992.7 991.9 0.0
03/10:27am 12.4 6.0 5.1 61 3.4 NW 28 46 15 25 992.7 991.9 0.0
03/10:00am 11.5 6.2 4.9 64 3.1 WNW 22 35 12 19 992.8 992.0 0.0
03/09:30am 10.7 3.5 4.8 67 2.7 WNW 32 44 17 24 992.5 991.7 0.0
03/09:00am 10.8 5.5 5.1 68 2.7 WNW 22 33 12 18 992.2 991.4 12.6
03/08:30am 10.0 5.1 5.2 72 2.2 NW 20 37 11 20 991.9 991.1 12.6
03/08:00am 9.3 4.6 5.1 75 1.9 NW 19 30 10 16 991.5 990.7 12.6
03/07:30am 8.8 4.4 4.8 76 1.8 NW 17 32 9 17 991.4 990.6 12.6

Other formats

Comma delimited format used in spreadsheet applications
http://www.bom.gov.au/fwo/IDV60801/IDV60801.94863.axf

JavaScript Object Notation format (JSON) in row-major order
http://www.bom.gov.au/fwo/IDV60801/IDV60801.94863.json

Data quality

Most of these data are generated automatically and are frequently updated. Quality checks on data are not normally performed. It is possible for incorrect values to appear. Refer to information at About Latest Weather Observations and please check the disclaimer before using these data.